Statische Karte - Kartenansicht · Info · Telemetrie · Wetter · Rohdaten · Status · Baken · Mitteilungen · Nachrichten · durchsuchen · bewegend · Mein Benutzerkonto
Rufzeichen, Schiffsname oder Locator: Rücksetzen       
Diese Seite zeigt Positionen auf einer statischen Karte. Sie dient der maximalen Kompatibilität mit mobilen Geräten und alten Browsern. Diese Karte wird nicht automatisch aktualisiert. Bitte laden sie die Seite neu, um eine aktualisierte Ansicht zu erhalten. Diese Ansicht unterstützt den Aufruf mehrerer Komma-separierter Rufzeichen. Beispiel: Rautauoma,OH2RDK
1: SBBI 25°24.31' S 49°13.92' W - GG54JO22DS
Static map showing the positions
Zoom: 2 4 6 7 8 9 10 11 12 13 14
1: SBBI - 25°24.31' S 49°13.92' W - GG54JO22DS
Kommentar: Bacacheri Airport METAR SBBI 260000Z 07007KT 010V130 9999 OVC007 16/14 Q1020
Ort: 25°24.31' S 49°13.92' W - Locator GG54JO22DS - zeige Karte - statische Karte
4.8 km Nordost Kurs 59° von Curitiba, Curitiba, Paraná, Brazil [?]
5.9 km Nordwest Kurs 318° von Pinhais, Paraná, Brazil
107.1 km Nord Kurs 339° von Joinville, Santa Catarina, Brazil
Letzte Position: 2021-09-26 00:25:51 UTC (12m22s vor)
2021-09-25 21:25:51 -03 lokale Zeit in Curitiba, Brazil [?]
User guide · FAQ · Blog · Diskussionsgruppe · Link zu aprs.fi · AIS-Sites · Status des Servers · Datenbank Statistiken · Werbe auf aprs.fi · Technische Details · API · Änderungen · geplante Änderungen · Dank an · Nutzungsbedingungen · iPhone/iPad APRS